F/V Cote D'ambre — FPEY — position and weather

sailwx.info

Track history (hours):
 
Tides and Currents Weather Stations Pressure Air Temp Water Temp Dewpoint Dewpoint Depression Visibility Wind Speed Wind Dir Waves Ship Positions

F/V Cote D'ambre

Last reported at 2017-Feb-27 11:31 UTC. Time now 2017-Feb-27 14:23 UTC.
Position N 47°44' W 003°22'.

Length 16 m; draft 4 m.

Type: Fishing. MMSI: 227128800.

Date/timePositionNaut miles runAvg speedWind from/ knotsBaromVisibWave heightAir tempDewpointWater temp
2017-Feb-27 11:31N 47°44' W 003°22'0 0.0
2017-Feb-27 10:31N 47°44' W 003°22'0 0.0
2017-Feb-27 09:31N 47°44' W 003°22'0 0.0
2017-Feb-27 08:31N 47°44' W 003°22'0 0.0
2017-Feb-27 07:31N 47°44' W 003°22'0 0.2
2017-Feb-27 06:33N 47°44' W 003°22'0 0.0
2017-Feb-27 05:33N 47°44' W 003°22'0 0.0
2017-Feb-27 04:33N 47°44' W 003°22'0 0.0
2017-Feb-27 03:33N 47°44' W 003°22'0 0.0
2017-Feb-27 02:33N 47°44' W 003°22'1 1.3
2017-Feb-27 01:33N 47°42' W 003°22'8 8.1
2017-Feb-27 00:33N 47°34' W 003°22'8 8.0
2017-Feb-26 23:33N 47°27' W 003°25'8 7.9
2017-Feb-26 22:33N 47°19' W 003°27'8 7.7
2017-Feb-26 21:32N 47°11' W 003°29'7 6.9
2017-Feb-26 20:31N 47°04' W 003°29'3 2.5
2017-Feb-26 19:23N 47°02' W 003°31'3 3.3
2017-Feb-26 18:27N 46°59' W 003°31'4 3.1
2017-Feb-26 17:11N 46°56' W 003°27'3 3.2
2017-Feb-26 16:22N 46°54' W 003°25'3 3.1
2017-Feb-26 15:33N 46°53' W 003°21'6 6.1
2017-Feb-26 14:32N 46°53' W 003°12'1 0.6
2017-Feb-26 13:33N 46°53' W 003°13'3 3.0
2017-Feb-26 12:30N 46°55' W 003°16'3 3.1
2017-Feb-26 11:29N 46°58' W 003°17'3 3.1
2017-Feb-26 10:33N 47°00' W 003°20'8 0.6
2017-Feb-25 22:28N 46°59' W 003°32'6 2.9
2017-Feb-25 20:26N 46°58' W 003°23'3 3.3
2017-Feb-25 19:28N 46°59' W 003°18'0 0.3
2017-Feb-25 18:30N 46°58' W 003°18'3 0.3
2017-Feb-25 08:25N 46°58' W 003°15'2 1.8
2017-Feb-25 07:20N 46°59' W 003°17'10 2.5
2017-Feb-25 03:24N 47°07' W 003°24'7 8.1
2017-Feb-25 02:33N 47°14' W 003°23'8 8.2
2017-Feb-25 01:33N 47°22' W 003°23'8 8.1
2017-Feb-25 00:33N 47°30' W 003°23'8 8.1
2017-Feb-24 23:33N 47°38' W 003°22'5 5.3
2017-Feb-24 22:33N 47°44' W 003°22'1 0.9
2017-Feb-24 21:33N 47°43' W 003°22'8 7.7
2017-Feb-24 20:33N 47°35' W 003°23'6 6.3
2017-Feb-24 19:33N 47°30' W 003°28'3 3.0
2017-Feb-24 18:33N 47°28' W 003°31'3 3.5
2017-Feb-24 17:33N 47°28' W 003°36'4 3.7
2017-Feb-24 16:33N 47°31' W 003°41'1 1.5
2017-Feb-24 15:33N 47°30' W 003°39'3 3.0
2017-Feb-24 14:33N 47°28' W 003°42'3 3.0
2017-Feb-24 13:33N 47°31' W 003°41'3 2.8
2017-Feb-24 12:33N 47°28' W 003°40'3 3.2
2017-Feb-24 11:33N 47°30' W 003°38'3 3.0
2017-Feb-24 10:33N 47°31' W 003°42'2 2.0
2017-Feb-24 09:33N 47°29' W 003°42'3 2.6
2017-Feb-24 08:33N 47°26' W 003°42'3 3.4
2017-Feb-24 07:33N 47°27' W 003°37'3 3.2
2017-Feb-24 06:32N 47°26' W 003°33'4 4.4
2017-Feb-24 05:33N 47°29' W 003°29'8 7.8
2017-Feb-24 04:33N 47°36' W 003°22'8 7.6
2017-Feb-24 03:31N 47°44' W 003°22'0 0.0
2017-Feb-24 02:31N 47°44' W 003°22'0 0.4
2017-Feb-24 01:34N 47°43' W 003°22'9 8.7
2017-Feb-24 00:34N 47°35' W 003°23'9 8.8
2017-Feb-23 23:34N 47°27' W 003°29'8 8.1
2017-Feb-23 22:33N 47°20' W 003°34'3 2.6
2017-Feb-23 21:34N 47°17' W 003°35'19 1.2
2017-Feb-23 06:29N 47°00' W 003°23'2 0.3
2017-Feb-22 23:18N 46°59' W 003°21'2 2.6
2017-Feb-22 22:33N 47°00' W 003°23'3 2.5
2017-Feb-22 21:24N 46°59' W 003°27'3 3.2
2017-Feb-22 20:33N 46°58' W 003°24'2 1.9
2017-Feb-22 19:31N 46°58' W 003°21'1 1.0
2017-Feb-22 18:32N 46°59' W 003°22'3 3.0
2017-Feb-22 17:33N 46°57' W 003°19'3 3.3
2017-Feb-22 16:32N 46°54' W 003°17'2 1.7
2017-Feb-22 15:16N 46°52' W 003°18'3 0.5
2017-Feb-22 10:08N 46°50' W 003°16'2 2.8
2017-Feb-22 09:33N 46°51' W 003°18'3 3.0
2017-Feb-22 08:30N 46°54' W 003°17'3 3.3
2017-Feb-22 07:33N 46°57' W 003°19'3 2.8
2017-Feb-22 06:33N 46°59' W 003°21'6 5.5
2017-Feb-22 05:32N 47°05' W 003°23'9 8.7
2017-Feb-22 04:33N 47°13' W 003°23'9 8.7
2017-Feb-22 03:33N 47°22' W 003°22'9 8.6
2017-Feb-22 02:33N 47°30' W 003°22'9 9.1
2017-Feb-22 01:31N 47°40' W 003°22'4 3.9
2017-Feb-22 00:30N 47°44' W 003°22'0 0.0
2017-Feb-21 23:33N 47°44' W 003°22'9 8.8
2017-Feb-21 22:33N 47°35' W 003°22'9 8.9
2017-Feb-21 21:33N 47°26' W 003°22'9 9.0
2017-Feb-21 20:33N 47°17' W 003°21'9 8.9
2017-Feb-21 19:33N 47°08' W 003°21'8 8.4
2017-Feb-21 18:33N 46°60' W 003°21'2 2.3
2017-Feb-21 17:30N 46°58' W 003°19'3 3.3
2017-Feb-21 16:33N 46°55' W 003°17'3 3.2
2017-Feb-21 15:31N 46°51' W 003°18'1 0.4
2017-Feb-21 14:11N 46°52' W 003°18'0 0.6
2017-Feb-21 13:30N 46°51' W 003°18'1 0.6
2017-Feb-21 12:27N 46°51' W 003°17'1 1.3
2017-Feb-21 11:25N 46°52' W 003°18'13 1.9
2017-Feb-21 04:32N 47°03' W 003°29'3 3.2
2017-Feb-21 03:32N 47°05' W 003°31'1 1.2
2017-Feb-21 02:16N 47°07' W 003°32'2 3.3
2017-Feb-21 01:33N 47°04' W 003°31'4 3.2
2017-Feb-21 00:27N 47°02' W 003°27'6 1.0
2017-Feb-20 18:24N 46°60' W 003°19'10 1.0
2017-Feb-20 08:25N 47°09' W 003°24'3 3.4
2017-Feb-20 07:33N 47°12' W 003°25'8 8.2
2017-Feb-20 06:33N 47°20' W 003°24'8 8.3
2017-Feb-20 05:33N 47°29' W 003°23'9 8.6
2017-Feb-20 04:33N 47°37' W 003°22'7 0.1
2017-Feb-18 04:13N 47°44' W 003°22'0 0.2
2017-Feb-18 03:31N 47°44' W 003°22'0 0.0
2017-Feb-18 02:31N 47°44' W 003°22'0 0.4
2017-Feb-18 01:33N 47°43' W 003°22'7 7.3
2017-Feb-18 00:33N 47°36' W 003°22'6 6.4
2017-Feb-17 23:34N 47°30' W 003°24'2 1.5
2017-Feb-17 22:33N 47°31' W 003°23'3 2.7
2017-Feb-17 21:26N 47°31' W 003°27'2 2.0
2017-Feb-17 20:33N 47°32' W 003°25'2 2.5
2017-Feb-17 19:33N 47°30' W 003°24'7 7.0
2017-Feb-17 18:34N 47°23' W 003°24'4 4.1
2017-Feb-17 17:33N 47°19' W 003°22'3 3.2
2017-Feb-17 16:33N 47°16' W 003°19'1 0.7
2017-Feb-17 15:33N 47°17' W 003°19'3 2.9
2017-Feb-17 14:33N 47°19' W 003°22'3 2.9
2017-Feb-17 13:33N 47°21' W 003°26'2 1.7
2017-Feb-17 12:33N 47°21' W 003°28'2 1.8
2017-Feb-17 11:33N 47°20' W 003°26'  
Track history (hours):
 
Tides and Currents Weather Stations Pressure Air Temp Water Temp Dewpoint Dewpoint Depression Visibility Wind Speed Wind Dir Waves Ship Positions

F/V Cote D'ambre

Last reported at 2017-Feb-27 11:31 UTC. Time now 2017-Feb-27 14:23 UTC.
Position N 47°44' W 003°22'.

Length 16 m; draft 4 m.

Type: Fishing. MMSI: 227128800.

Date/timePositionNaut miles runAvg speedWind from/ knotsBaromVisibWave heightAir tempDewpointWater temp
2017-Feb-27 11:31N 47°44' W 003°22'0 0.0
2017-Feb-27 10:31N 47°44' W 003°22'0 0.0
2017-Feb-27 09:31N 47°44' W 003°22'0 0.0
2017-Feb-27 08:31N 47°44' W 003°22'0 0.0
2017-Feb-27 07:31N 47°44' W 003°22'0 0.2
2017-Feb-27 06:33N 47°44' W 003°22'0 0.0
2017-Feb-27 05:33N 47°44' W 003°22'0 0.0
2017-Feb-27 04:33N 47°44' W 003°22'0 0.0
2017-Feb-27 03:33N 47°44' W 003°22'0 0.0
2017-Feb-27 02:33N 47°44' W 003°22'1 1.3
2017-Feb-27 01:33N 47°42' W 003°22'8 8.1
2017-Feb-27 00:33N 47°34' W 003°22'8 8.0
2017-Feb-26 23:33N 47°27' W 003°25'8 7.9
2017-Feb-26 22:33N 47°19' W 003°27'8 7.7
2017-Feb-26 21:32N 47°11' W 003°29'7 6.9
2017-Feb-26 20:31N 47°04' W 003°29'3 2.5
2017-Feb-26 19:23N 47°02' W 003°31'3 3.3
2017-Feb-26 18:27N 46°59' W 003°31'4 3.1
2017-Feb-26 17:11N 46°56' W 003°27'3 3.2
2017-Feb-26 16:22N 46°54' W 003°25'3 3.1
2017-Feb-26 15:33N 46°53' W 003°21'6 6.1
2017-Feb-26 14:32N 46°53' W 003°12'1 0.6
2017-Feb-26 13:33N 46°53' W 003°13'3 3.0
2017-Feb-26 12:30N 46°55' W 003°16'3 3.1
2017-Feb-26 11:29N 46°58' W 003°17'3 3.1
2017-Feb-26 10:33N 47°00' W 003°20'8 0.6
2017-Feb-25 22:28N 46°59' W 003°32'6 2.9
2017-Feb-25 20:26N 46°58' W 003°23'3 3.3
2017-Feb-25 19:28N 46°59' W 003°18'0 0.3
2017-Feb-25 18:30N 46°58' W 003°18'3 0.3
2017-Feb-25 08:25N 46°58' W 003°15'2 1.8
2017-Feb-25 07:20N 46°59' W 003°17'10 2.5
2017-Feb-25 03:24N 47°07' W 003°24'7 8.1
2017-Feb-25 02:33N 47°14' W 003°23'8 8.2
2017-Feb-25 01:33N 47°22' W 003°23'8 8.1
2017-Feb-25 00:33N 47°30' W 003°23'8 8.1
2017-Feb-24 23:33N 47°38' W 003°22'5 5.3
2017-Feb-24 22:33N 47°44' W 003°22'1 0.9
2017-Feb-24 21:33N 47°43' W 003°22'8 7.7
2017-Feb-24 20:33N 47°35' W 003°23'6 6.3
2017-Feb-24 19:33N 47°30' W 003°28'3 3.0
2017-Feb-24 18:33N 47°28' W 003°31'3 3.5
2017-Feb-24 17:33N 47°28' W 003°36'4 3.7
2017-Feb-24 16:33N 47°31' W 003°41'1 1.5
2017-Feb-24 15:33N 47°30' W 003°39'3 3.0
2017-Feb-24 14:33N 47°28' W 003°42'3 3.0
2017-Feb-24 13:33N 47°31' W 003°41'3 2.8
2017-Feb-24 12:33N 47°28' W 003°40'3 3.2
2017-Feb-24 11:33N 47°30' W 003°38'3 3.0
2017-Feb-24 10:33N 47°31' W 003°42'2 2.0
2017-Feb-24 09:33N 47°29' W 003°42'3 2.6
2017-Feb-24 08:33N 47°26' W 003°42'3 3.4
2017-Feb-24 07:33N 47°27' W 003°37'3 3.2
2017-Feb-24 06:32N 47°26' W 003°33'4 4.4
2017-Feb-24 05:33N 47°29' W 003°29'8 7.8
2017-Feb-24 04:33N 47°36' W 003°22'8 7.6
2017-Feb-24 03:31N 47°44' W 003°22'0 0.0
2017-Feb-24 02:31N 47°44' W 003°22'0 0.4
2017-Feb-24 01:34N 47°43' W 003°22'9 8.7
2017-Feb-24 00:34N 47°35' W 003°23'9 8.8
2017-Feb-23 23:34N 47°27' W 003°29'8 8.1
2017-Feb-23 22:33N 47°20' W 003°34'3 2.6
2017-Feb-23 21:34N 47°17' W 003°35'19 1.2
2017-Feb-23 06:29N 47°00' W 003°23'2 0.3
2017-Feb-22 23:18N 46°59' W 003°21'2 2.6
2017-Feb-22 22:33N 47°00' W 003°23'3 2.5
2017-Feb-22 21:24N 46°59' W 003°27'3 3.2
2017-Feb-22 20:33N 46°58' W 003°24'2 1.9
2017-Feb-22 19:31N 46°58' W 003°21'1 1.0
2017-Feb-22 18:32N 46°59' W 003°22'3 3.0
2017-Feb-22 17:33N 46°57' W 003°19'3 3.3
2017-Feb-22 16:32N 46°54' W 003°17'2 1.7
2017-Feb-22 15:16N 46°52' W 003°18'3 0.5
2017-Feb-22 10:08N 46°50' W 003°16'2 2.8
2017-Feb-22 09:33N 46°51' W 003°18'3 3.0
2017-Feb-22 08:30N 46°54' W 003°17'3 3.3
2017-Feb-22 07:33N 46°57' W 003°19'3 2.8
2017-Feb-22 06:33N 46°59' W 003°21'6 5.5
2017-Feb-22 05:32N 47°05' W 003°23'9 8.7
2017-Feb-22 04:33N 47°13' W 003°23'9 8.7
2017-Feb-22 03:33N 47°22' W 003°22'9 8.6
2017-Feb-22 02:33N 47°30' W 003°22'9 9.1
2017-Feb-22 01:31N 47°40' W 003°22'4 3.9
2017-Feb-22 00:30N 47°44' W 003°22'0 0.0
2017-Feb-21 23:33N 47°44' W 003°22'9 8.8
2017-Feb-21 22:33N 47°35' W 003°22'9 8.9
2017-Feb-21 21:33N 47°26' W 003°22'9 9.0
2017-Feb-21 20:33N 47°17' W 003°21'9 8.9
2017-Feb-21 19:33N 47°08' W 003°21'8 8.4
2017-Feb-21 18:33N 46°60' W 003°21'2 2.3
2017-Feb-21 17:30N 46°58' W 003°19'3 3.3
2017-Feb-21 16:33N 46°55' W 003°17'3 3.2
2017-Feb-21 15:31N 46°51' W 003°18'1 0.4
2017-Feb-21 14:11N 46°52' W 003°18'0 0.6
2017-Feb-21 13:30N 46°51' W 003°18'1 0.6
2017-Feb-21 12:27N 46°51' W 003°17'1 1.3
2017-Feb-21 11:25N 46°52' W 003°18'13 1.9
2017-Feb-21 04:32N 47°03' W 003°29'3 3.2
2017-Feb-21 03:32N 47°05' W 003°31'1 1.2
2017-Feb-21 02:16N 47°07' W 003°32'2 3.3
2017-Feb-21 01:33N 47°04' W 003°31'4 3.2
2017-Feb-21 00:27N 47°02' W 003°27'6 1.0
2017-Feb-20 18:24N 46°60' W 003°19'10 1.0
2017-Feb-20 08:25N 47°09' W 003°24'3 3.4
2017-Feb-20 07:33N 47°12' W 003°25'8 8.2
2017-Feb-20 06:33N 47°20' W 003°24'8 8.3
2017-Feb-20 05:33N 47°29' W 003°23'9 8.6
2017-Feb-20 04:33N 47°37' W 003°22'7 0.1
2017-Feb-18 04:13N 47°44' W 003°22'0 0.2
2017-Feb-18 03:31N 47°44' W 003°22'0 0.0
2017-Feb-18 02:31N 47°44' W 003°22'0 0.4
2017-Feb-18 01:33N 47°43' W 003°22'7 7.3
2017-Feb-18 00:33N 47°36' W 003°22'6 6.4
2017-Feb-17 23:34N 47°30' W 003°24'2 1.5
2017-Feb-17 22:33N 47°31' W 003°23'3 2.7
2017-Feb-17 21:26N 47°31' W 003°27'2 2.0
2017-Feb-17 20:33N 47°32' W 003°25'2 2.5
2017-Feb-17 19:33N 47°30' W 003°24'7 7.0
2017-Feb-17 18:34N 47°23' W 003°24'4 4.1
2017-Feb-17 17:33N 47°19' W 003°22'3 3.2
2017-Feb-17 16:33N 47°16' W 003°19'1 0.7
2017-Feb-17 15:33N 47°17' W 003°19'3 2.9
2017-Feb-17 14:33N 47°19' W 003°22'3 2.9
2017-Feb-17 13:33N 47°21' W 003°26'2 1.7
2017-Feb-17 12:33N 47°21' W 003°28'2 1.8
2017-Feb-17 11:33N 47°20' W 003°26'  

Dump ship's entire track history